Key West Nas, Boca Chica Field, Airport Key West US
ICAO: KNQX
IATA: NQX
Category: Medium
Scheduled Services: No

Elevation: 6 ft
TransAlt. 18000 ft.

Airport Communications:
APP DEP:119.25
ATIS:27.72
CLNC DEL:121.2
GND:121.7
BASE OPS:33.8
PMSV METRO:34.46
TWR:126.1

KNQX Zoom In..

Runways:

(A) RW 03 length 7002 ft width 150 ft
---- / hdg 34

(B) RW 07 length 10001 ft width 200 ft
---- / hdg 75

(C) RW 13 length 7001 ft width 150 ft
---- / hdg 133

(D) RW 21 length 7002 ft width 150 ft
---- / hdg 214

(E) RW 25 length 10001 ft width 200 ft
---- / hdg 255

(F) RW 31 length 7001 ft width 150 ft
---- / hdg 313

Location; KNQX
Day. 15 / Time. 21.53 Zulu
* Altimeter: 30.02
* Temperature: 31° c. 87.8°f.
* Wind from: VRB° Speed 06 kn.
Dewpoint: 23° c.
Visibility: 10 Statute Miles.
Clouds: Few 3200 ft.
Clouds: Few 6000 ft.
Clouds: Broken 24000 ft.
Conditions: Cumulonimbus.

KNQX 152153Z VRB06KT 10SM FEW032CB FEW060 BKN240 31/23 A3002 RMK AO2 SLP166 CB DSNT SE T2 SET T03110233 $


Wind From VRB°
Speed 06 kn.

 
 
jpsmedia.com for Web Design worldairports.se 2018   terms of use